sensor_id;sensor_type;location;lat;lon;timestamp;pressure;altitude;pressure_sealevel;temperature;humidity
53647;BME280;39550;52.230;5.194;2024-02-26T00:02:06;99921.09;;;5.68;96.46
53647;BME280;39550;52.230;5.194;2024-02-26T00:04:31;99916.81;;;5.67;95.59
53647;BME280;39550;52.230;5.194;2024-02-26T00:06:57;99921.09;;;5.68;96.51
53647;BME280;39550;52.230;5.194;2024-02-26T00:09:23;99916.81;;;5.67;95.75
53647;BME280;39550;52.230;5.194;2024-02-26T00:11:48;99915.97;;;5.67;96.45
53647;BME280;39550;52.230;5.194;2024-02-26T00:14:14;99917.66;;;5.66;95.90
53647;BME280;39550;52.230;5.194;2024-02-26T00:16:42;99926.16;;;5.65;96.50
53647;BME280;39550;52.230;5.194;2024-02-26T00:19:07;99919.34;;;5.66;96.45
53647;BME280;39550;52.230;5.194;2024-02-26T00:21:32;99921.06;;;5.65;96.26
53647;BME280;39550;52.230;5.194;2024-02-26T00:23:58;99926.16;;;5.65;96.20
53647;BME280;39550;52.230;5.194;2024-02-26T00:26:23;99919.34;;;5.64;96.20
53647;BME280;39550;52.230;5.194;2024-02-26T00:28:48;99910.72;;;5.56;96.43
53647;BME280;39550;52.230;5.194;2024-02-26T00:31:14;99922.72;;;5.63;95.49
53647;BME280;39550;52.230;5.194;2024-02-26T00:33:39;99932.13;;;5.64;95.69
53647;BME280;39550;52.230;5.194;2024-02-26T00:36:05;99922.72;;;5.63;95.63
53647;BME280;39550;52.230;5.194;2024-02-26T00:38:30;99930.38;;;5.63;95.47
53647;BME280;39550;52.230;5.194;2024-02-26T00:40:55;99926.97;;;5.61;95.54
53647;BME280;39550;52.230;5.194;2024-02-26T00:43:21;99933.78;;;5.62;96.45
53647;BME280;39550;52.230;5.194;2024-02-26T00:45:46;99928.66;;;5.62;96.45
53647;BME280;39550;52.230;5.194;2024-02-26T00:48:12;99931.22;;;5.62;96.21
53647;BME280;39550;52.230;5.194;2024-02-26T00:50:39;99934.63;;;5.61;96.21
53647;BME280;39550;52.230;5.194;2024-02-26T00:53:04;99932.91;;;5.60;96.54
53647;BME280;39550;52.230;5.194;2024-02-26T00:55:29;99922.69;;;5.60;95.95
53647;BME280;39550;52.230;5.194;2024-02-26T00:57:54;99934.63;;;5.61;95.82
53647;BME280;39550;52.230;5.194;2024-02-26T01:00:20;99930.34;;;5.60;95.30
53647;BME280;39550;52.230;5.194;2024-02-26T01:02:46;99930.34;;;5.60;96.09
53647;BME280;39550;52.230;5.194;2024-02-26T01:05:14;99917.47;;;5.54;96.18
53647;BME280;39550;52.230;5.194;2024-02-26T01:07:41;99929.50;;;5.59;96.07
53647;BME280;39550;52.230;5.194;2024-02-26T01:10:07;99940.56;;;5.60;96.27
53647;BME280;39550;52.230;5.194;2024-02-26T01:12:33;99933.75;;;5.59;95.46
53647;BME280;39550;52.230;5.194;2024-02-26T01:14:59;99932.91;;;5.60;95.47
53647;BME280;39550;52.230;5.194;2024-02-26T01:17:24;99933.75;;;5.59;95.67
53647;BME280;39550;52.230;5.194;2024-02-26T01:19:49;99931.19;;;5.59;95.88
53647;BME280;39550;52.230;5.194;2024-02-26T01:22:15;99939.69;;;5.58;95.60
53647;BME280;39550;52.230;5.194;2024-02-26T01:24:40;99932.00;;;5.58;95.65
53647;BME280;39550;52.230;5.194;2024-02-26T01:27:05;99949.06;;;5.59;95.58
53647;BME280;39550;52.230;5.194;2024-02-26T01:29:33;99938.00;;;5.57;95.49
53647;BME280;39550;52.230;5.194;2024-02-26T01:31:58;99938.00;;;5.57;96.27
53647;BME280;39550;52.230;5.194;2024-02-26T01:34:23;99938.81;;;5.56;96.46
53647;BME280;39550;52.230;5.194;2024-02-26T01:36:49;99939.66;;;5.55;95.88
53647;BME280;39550;52.230;5.194;2024-02-26T01:39:14;99938.81;;;5.56;96.29
53647;BME280;39550;52.230;5.194;2024-02-26T01:41:40;99944.75;;;5.55;95.77
53647;BME280;39550;52.230;5.194;2024-02-26T01:44:06;99944.75;;;5.55;96.00
53647;BME280;39550;52.230;5.194;2024-02-26T01:46:33;99941.38;;;5.56;96.37
53647;BME280;39550;52.230;5.194;2024-02-26T01:48:59;99943.03;;;5.54;96.03
53647;BME280;39550;52.230;5.194;2024-02-26T01:51:26;99938.81;;;5.54;95.41
53647;BME280;39550;52.230;5.194;2024-02-26T01:53:51;99932.81;;;5.54;96.12
53647;BME280;39550;52.230;5.194;2024-02-26T01:56:17;99937.09;;;5.55;95.59
53647;BME280;39550;52.230;5.194;2024-02-26T01:58:45;99928.56;;;5.53;95.56
53647;BME280;39550;52.230;5.194;2024-02-26T02:01:10;99949.00;;;5.53;96.26
53647;BME280;39550;52.230;5.194;2024-02-26T02:03:36;99937.91;;;5.54;96.11
53647;BME280;39550;52.230;5.194;2024-02-26T02:06:05;99937.06;;;5.52;95.57
53647;BME280;39550;52.230;5.194;2024-02-26T02:08:30;99941.34;;;5.53;96.04
53647;BME280;39550;52.230;5.194;2024-02-26T02:10:56;99946.44;;;5.53;95.45
53647;BME280;39550;52.230;5.194;2024-02-26T02:13:21;99943.88;;;5.51;95.38
53647;BME280;39550;52.230;5.194;2024-02-26T02:15:47;99947.28;;;5.52;96.15
53647;BME280;39550;52.230;5.194;2024-02-26T02:18:12;99949.00;;;5.51;95.72
53647;BME280;39550;52.230;5.194;2024-02-26T02:20:37;99947.28;;;5.52;95.47
53647;BME280;39550;52.230;5.194;2024-02-26T02:23:03;99964.28;;;5.50;95.71
53647;BME280;39550;52.230;5.194;2024-02-26T02:25:28;99953.22;;;5.51;95.43
53647;BME280;39550;52.230;5.194;2024-02-26T02:27:55;99954.03;;;5.50;96.24
53647;BME280;39550;52.230;5.194;2024-02-26T02:30:21;99951.50;;;5.50;96.03
53647;BME280;39550;52.230;5.194;2024-02-26T02:32:49;99959.13;;;5.48;95.33
53647;BME280;39550;52.230;5.194;2024-02-26T02:35:14;99956.59;;;5.50;95.79
53647;BME280;39550;52.230;5.194;2024-02-26T02:37:39;99964.25;;;5.48;95.35
53647;BME280;39550;52.230;5.194;2024-02-26T02:40:06;99962.56;;;5.49;95.29
53647;BME280;39550;52.230;5.194;2024-02-26T02:42:31;99963.41;;;5.48;95.29
53647;BME280;39550;52.230;5.194;2024-02-26T02:44:56;99970.25;;;5.49;95.40
53647;BME280;39550;52.230;5.194;2024-02-26T02:47:22;99971.94;;;5.50;95.61
53647;BME280;39550;52.230;5.194;2024-02-26T02:49:47;99965.13;;;5.49;95.46
53647;BME280;39550;52.230;5.194;2024-02-26T02:52:12;99969.38;;;5.48;95.55
53647;BME280;39550;52.230;5.194;2024-02-26T02:54:37;99970.25;;;5.49;95.35
53647;BME280;39550;52.230;5.194;2024-02-26T02:57:05;99971.06;;;5.48;95.55
53647;BME280;39550;52.230;5.194;2024-02-26T02:59:30;99973.63;;;5.48;96.30
53647;BME280;39550;52.230;5.194;2024-02-26T03:01:56;99973.63;;;5.48;96.23
53647;BME280;39550;52.230;5.194;2024-02-26T03:04:21;99980.47;;;5.49;96.03
53647;BME280;39550;52.230;5.194;2024-02-26T03:06:47;99988.13;;;5.49;95.59
53647;BME280;39550;52.230;5.194;2024-02-26T03:09:12;99986.41;;;5.48;95.85
53647;BME280;39550;52.230;5.194;2024-02-26T03:11:37;99997.44;;;5.46;95.38
53647;BME280;39550;52.230;5.194;2024-02-26T03:14:04;100010.22;;;5.45;95.38
53647;BME280;39550;52.230;5.194;2024-02-26T03:16:30;99995.66;;;5.39;96.00
53647;BME280;39550;52.230;5.194;2024-02-26T03:18:55;100011.94;;;5.46;96.31
53647;BME280;39550;52.230;5.194;2024-02-26T03:21:20;100011.13;;;5.49;96.05
53647;BME280;39550;52.230;5.194;2024-02-26T03:23:46;100015.34;;;5.48;96.21
53647;BME280;39550;52.230;5.194;2024-02-26T03:26:11;100024.72;;;5.48;96.12
53647;BME280;39550;52.230;5.194;2024-02-26T03:28:39;100022.97;;;5.43;96.01
53647;BME280;39550;52.230;5.194;2024-02-26T03:31:04;100018.69;;;5.42;95.38
53647;BME280;39550;52.230;5.194;2024-02-26T03:33:30;100029.75;;;5.41;96.27
53647;BME280;39550;52.230;5.194;2024-02-26T03:35:55;100022.09;;;5.41;95.30
53647;BME280;39550;52.230;5.194;2024-02-26T03:38:20;100018.66;;;5.41;95.48
53647;BME280;39550;52.230;5.194;2024-02-26T03:40:46;100021.19;;;5.39;95.67
53647;BME280;39550;52.230;5.194;2024-02-26T03:43:11;100024.56;;;5.38;95.51
53647;BME280;39550;52.230;5.194;2024-02-26T03:45:38;100022.00;;;5.37;95.94
53647;BME280;39550;52.230;5.194;2024-02-26T03:48:03;100031.41;;;5.39;95.51
53647;BME280;39550;52.230;5.194;2024-02-26T03:50:29;100033.16;;;5.40;95.44
53647;BME280;39550;52.230;5.194;2024-02-26T03:52:54;100031.41;;;5.39;95.93
53647;BME280;39550;52.230;5.194;2024-02-26T03:55:20;100032.25;;;5.38;95.87
53647;BME280;39550;52.230;5.194;2024-02-26T03:57:50;100035.69;;;5.39;96.10
53647;BME280;39550;52.230;5.194;2024-02-26T04:00:16;100048.47;;;5.40;96.52
53647;BME280;39550;52.230;5.194;2024-02-26T04:02:41;100047.59;;;5.40;95.75
53647;BME280;39550;52.230;5.194;2024-02-26T04:05:10;100046.75;;;5.39;96.41
53647;BME280;39550;52.230;5.194;2024-02-26T04:07:35;100050.13;;;5.38;96.24
53647;BME280;39550;52.230;5.194;2024-02-26T04:10:01;100051.84;;;5.39;95.61
53647;BME280;39550;52.230;5.194;2024-02-26T04:12:28;100051.84;;;5.39;95.58
53647;BME280;39550;52.230;5.194;2024-02-26T04:14:54;100060.34;;;5.38;96.33
53647;BME280;39550;52.230;5.194;2024-02-26T04:17:19;100056.09;;;5.37;95.80
53647;BME280;39550;52.230;5.194;2024-02-26T04:19:44;100061.22;;;5.37;96.04
53647;BME280;39550;52.230;5.194;2024-02-26T04:22:10;100071.44;;;5.37;96.12
53647;BME280;39550;52.230;5.194;2024-02-26T04:24:36;100072.25;;;5.36;95.97
53647;BME280;39550;52.230;5.194;2024-02-26T04:27:01;100076.53;;;5.37;96.39
53647;BME280;39550;52.230;5.194;2024-02-26T04:29:26;100076.47;;;5.36;96.00
53647;BME280;39550;52.230;5.194;2024-02-26T04:31:52;100082.47;;;5.36;95.88
53647;BME280;39550;52.230;5.194;2024-02-26T04:34:17;100080.75;;;5.35;95.93
53647;BME280;39550;52.230;5.194;2024-02-26T04:36:42;100085.84;;;5.35;95.75
53647;BME280;39550;52.230;5.194;2024-02-26T04:39:08;100088.41;;;5.35;96.44
53647;BME280;39550;52.230;5.194;2024-02-26T04:41:33;100091.78;;;5.34;96.32
53647;BME280;39550;52.230;5.194;2024-02-26T04:43:59;100090.97;;;5.35;95.87
53647;BME280;39550;52.230;5.194;2024-02-26T04:46:24;100077.16;;;5.24;95.50
53647;BME280;39550;52.230;5.194;2024-02-26T04:48:49;100089.22;;;5.34;95.94
53647;BME280;39550;52.230;5.194;2024-02-26T04:51:14;100095.19;;;5.33;96.17
53647;BME280;39550;52.230;5.194;2024-02-26T04:53:40;100088.38;;;5.34;96.13
53647;BME280;39550;52.230;5.194;2024-02-26T04:56:05;100097.75;;;5.33;95.70
53647;BME280;39550;52.230;5.194;2024-02-26T04:58:31;100085.81;;;5.32;96.04
53647;BME280;39550;52.230;5.194;2024-02-26T05:00:56;100085.81;;;5.32;95.96
53647;BME280;39550;52.230;5.194;2024-02-26T05:03:21;100088.38;;;5.34;95.43
53647;BME280;39550;52.230;5.194;2024-02-26T05:05:47;100085.81;;;5.32;95.04
53647;BME280;39550;52.230;5.194;2024-02-26T05:08:12;100102.88;;;5.33;95.44
53647;BME280;39550;52.230;5.194;2024-02-26T05:10:38;100094.25;;;5.28;95.84
53647;BME280;39550;52.230;5.194;2024-02-26T05:13:09;100092.56;;;5.30;96.13
53647;BME280;39550;52.230;5.194;2024-02-26T05:15:35;100098.53;;;5.29;95.46
53647;BME280;39550;52.230;5.194;2024-02-26T05:18:01;100098.53;;;5.29;95.42
53647;BME280;39550;52.230;5.194;2024-02-26T05:20:26;100101.94;;;5.29;95.78
53647;BME280;39550;52.230;5.194;2024-02-26T05:22:51;100110.44;;;5.30;95.25
53647;BME280;39550;52.230;5.194;2024-02-26T05:25:17;100106.19;;;5.29;95.43
53647;BME280;39550;52.230;5.194;2024-02-26T05:27:43;100099.22;;;5.22;95.79
53647;BME280;39550;52.230;5.194;2024-02-26T05:30:09;100114.69;;;5.28;95.86
53647;BME280;39550;52.230;5.194;2024-02-26T05:32:34;100122.34;;;5.28;95.48
53647;BME280;39550;52.230;5.194;2024-02-26T05:35:00;100118.94;;;5.27;96.02
53647;BME280;39550;52.230;5.194;2024-02-26T05:37:25;100121.44;;;5.26;95.43
53647;BME280;39550;52.230;5.194;2024-02-26T05:39:50;100121.44;;;5.26;96.16
53647;BME280;39550;52.230;5.194;2024-02-26T05:42:16;100125.72;;;5.25;95.30
53647;BME280;39550;52.230;5.194;2024-02-26T05:44:41;100123.13;;;5.24;95.59
53647;BME280;39550;52.230;5.194;2024-02-26T05:47:06;100132.50;;;5.23;95.96
53647;BME280;39550;52.230;5.194;2024-02-26T05:49:31;100129.06;;;5.23;95.91
53647;BME280;39550;52.230;5.194;2024-02-26T05:51:58;100134.19;;;5.24;95.12
53647;BME280;39550;52.230;5.194;2024-02-26T05:54:23;100132.53;;;5.25;95.89
53647;BME280;39550;52.230;5.194;2024-02-26T05:56:49;100136.72;;;5.23;95.31
53647;BME280;39550;52.230;5.194;2024-02-26T05:59:14;100114.41;;;5.13;95.25
53647;BME280;39550;52.230;5.194;2024-02-26T06:01:41;100143.56;;;5.24;95.63
53647;BME280;39550;52.230;5.194;2024-02-26T06:04:06;100138.44;;;5.24;95.38
53647;BME280;39550;52.230;5.194;2024-02-26T06:06:31;100136.72;;;5.23;94.95
53647;BME280;39550;52.230;5.194;2024-02-26T06:08:57;100140.09;;;5.22;95.57
53647;BME280;39550;52.230;5.194;2024-02-26T06:11:22;100156.38;;;5.25;95.23
53647;BME280;39550;52.230;5.194;2024-02-26T06:13:47;100164.81;;;5.23;95.14
53647;BME280;39550;52.230;5.194;2024-02-26T06:16:13;100165.66;;;5.22;95.23
53647;BME280;39550;52.230;5.194;2024-02-26T06:18:38;100178.41;;;5.20;95.56
53647;BME280;39550;52.230;5.194;2024-02-26T06:21:04;100180.13;;;5.21;96.23
53647;BME280;39550;52.230;5.194;2024-02-26T06:23:29;100175.94;;;5.23;95.86
53647;BME280;39550;52.230;5.194;2024-02-26T06:25:54;100176.75;;;5.22;95.16
53647;BME280;39550;52.230;5.194;2024-02-26T06:28:20;100177.56;;;5.21;95.50
53647;BME280;39550;52.230;5.194;2024-02-26T06:30:45;100182.66;;;5.20;95.87
53647;BME280;39550;52.230;5.194;2024-02-26T06:33:11;100195.47;;;5.23;95.67
53647;BME280;39550;52.230;5.194;2024-02-26T06:35:36;100192.91;;;5.23;95.20
53647;BME280;39550;52.230;5.194;2024-02-26T06:38:02;100208.25;;;5.23;95.60
53647;BME280;39550;52.230;5.194;2024-02-26T06:40:27;100198.84;;;5.22;95.99
53647;BME280;39550;52.230;5.194;2024-02-26T06:42:53;100205.66;;;5.21;95.38
53647;BME280;39550;52.230;5.194;2024-02-26T06:45:18;100180.88;;;5.16;95.38
53647;BME280;39550;52.230;5.194;2024-02-26T06:47:46;100195.41;;;5.18;95.44
53647;BME280;39550;52.230;5.194;2024-02-26T06:50:12;100204.81;;;5.21;95.55
53647;BME280;39550;52.230;5.194;2024-02-26T06:52:38;100209.84;;;5.18;95.79
53647;BME280;39550;52.230;5.194;2024-02-26T06:55:04;100210.72;;;5.18;95.99
53647;BME280;39550;52.230;5.194;2024-02-26T06:57:30;100215.81;;;5.17;95.46
53647;BME280;39550;52.230;5.194;2024-02-26T06:59:55;100211.53;;;5.16;95.49
53647;BME280;39550;52.230;5.194;2024-02-26T07:02:20;100220.00;;;5.15;95.84
53647;BME280;39550;52.230;5.194;2024-02-26T07:04:46;100223.47;;;5.17;95.36
53647;BME280;39550;52.230;5.194;2024-02-26T07:07:11;100237.06;;;5.16;95.02
53647;BME280;39550;52.230;5.194;2024-02-26T07:09:36;100226.72;;;5.09;95.41
53647;BME280;39550;52.230;5.194;2024-02-26T07:12:02;100238.72;;;5.14;95.68
53647;BME280;39550;52.230;5.194;2024-02-26T07:14:27;100248.09;;;5.15;95.23
53647;BME280;39550;52.230;5.194;2024-02-26T07:16:53;100247.22;;;5.13;95.51
53647;BME280;39550;52.230;5.194;2024-02-26T07:19:18;100259.13;;;5.14;95.53
53647;BME280;39550;52.230;5.194;2024-02-26T07:21:43;100259.13;;;5.14;95.33
53647;BME280;39550;52.230;5.194;2024-02-26T07:24:09;100259.13;;;5.14;95.46
53647;BME280;39550;52.230;5.194;2024-02-26T07:26:34;100255.72;;;5.11;95.64
53647;BME280;39550;52.230;5.194;2024-02-26T07:28:59;100257.34;;;5.09;95.12
53647;BME280;39550;52.230;5.194;2024-02-26T07:31:25;100258.06;;;5.02;95.86
53647;BME280;39550;52.230;5.194;2024-02-26T07:33:50;100268.44;;;5.10;95.71
53647;BME280;39550;52.230;5.194;2024-02-26T07:36:16;100275.28;;;5.11;95.17
53647;BME280;39550;52.230;5.194;2024-02-26T07:38:41;100273.59;;;5.11;95.24
53647;BME280;39550;52.230;5.194;2024-02-26T07:41:07;100271.75;;;5.06;95.71
53647;BME280;39550;52.230;5.194;2024-02-26T07:43:32;100279.50;;;5.10;95.76
53647;BME280;39550;52.230;5.194;2024-02-26T07:45:57;100282.94;;;5.11;96.14
53647;BME280;39550;52.230;5.194;2024-02-26T07:48:23;100279.50;;;5.10;95.83
53647;BME280;39550;52.230;5.194;2024-02-26T07:50:48;100283.78;;;5.10;95.08
53647;BME280;39550;52.230;5.194;2024-02-26T07:53:13;100280.31;;;5.08;95.44
53647;BME280;39550;52.230;5.194;2024-02-26T07:55:39;100293.09;;;5.09;95.18
53647;BME280;39550;52.230;5.194;2024-02-26T07:58:04;100292.22;;;5.07;95.30
53647;BME280;39550;52.230;5.194;2024-02-26T08:00:29;100286.25;;;5.05;96.09
53647;BME280;39550;52.230;5.194;2024-02-26T08:02:54;100298.22;;;5.09;95.66
53647;BME280;39550;52.230;5.194;2024-02-26T08:05:20;100305.88;;;5.09;96.16
53647;BME280;39550;52.230;5.194;2024-02-26T08:07:45;100306.72;;;5.08;95.67
53647;BME280;39550;52.230;5.194;2024-02-26T08:10:10;100316.94;;;5.08;95.86
53647;BME280;39550;52.230;5.194;2024-02-26T08:12:36;100321.19;;;5.09;95.60
53647;BME280;39550;52.230;5.194;2024-02-26T08:15:02;100312.69;;;5.09;96.24
53647;BME280;39550;52.230;5.194;2024-02-26T08:17:27;100317.78;;;5.09;95.17
53647;BME280;39550;52.230;5.194;2024-02-26T08:19:53;100320.34;;;5.09;95.10
53647;BME280;39550;52.230;5.194;2024-02-26T08:22:18;100327.16;;;5.08;95.83
53647;BME280;39550;52.230;5.194;2024-02-26T08:24:43;100325.50;;;5.10;95.24
53647;BME280;39550;52.230;5.194;2024-02-26T08:27:09;100330.53;;;5.07;95.44
53647;BME280;39550;52.230;5.194;2024-02-26T08:29:34;100331.38;;;5.08;95.87
53647;BME280;39550;52.230;5.194;2024-02-26T08:31:59;100337.31;;;5.05;95.95
53647;BME280;39550;52.230;5.194;2024-02-26T08:34:25;100339.06;;;5.09;95.74
53647;BME280;39550;52.230;5.194;2024-02-26T08:36:51;100328.84;;;5.09;95.67
53647;BME280;39550;52.230;5.194;2024-02-26T08:39:17;100324.53;;;5.05;95.56
53647;BME280;39550;52.230;5.194;2024-02-26T08:41:43;100345.03;;;5.08;95.46
53647;BME280;39550;52.230;5.194;2024-02-26T08:44:09;100340.78;;;5.09;96.00
53647;BME280;39550;52.230;5.194;2024-02-26T08:46:35;100341.59;;;5.08;95.25
53647;BME280;39550;52.230;5.194;2024-02-26T08:49:00;100352.69;;;5.08;95.82
53647;BME280;39550;52.230;5.194;2024-02-26T08:51:25;100362.03;;;5.08;95.90
53647;BME280;39550;52.230;5.194;2024-02-26T08:53:51;100364.59;;;5.08;95.83
53647;BME280;39550;52.230;5.194;2024-02-26T08:56:16;100373.13;;;5.08;95.35
53647;BME280;39550;52.230;5.194;2024-02-26T08:58:43;100372.28;;;5.09;95.57
53647;BME280;39550;52.230;5.194;2024-02-26T09:01:08;100374.84;;;5.09;96.12
53647;BME280;39550;52.230;5.194;2024-02-26T09:03:34;100373.97;;;5.09;95.39
53647;BME280;39550;52.230;5.194;2024-02-26T09:05:59;100383.34;;;5.08;96.01
53647;BME280;39550;52.230;5.194;2024-02-26T09:08:24;100385.03;;;5.09;95.55
53647;BME280;39550;52.230;5.194;2024-02-26T09:10:49;100382.50;;;5.09;95.14
53647;BME280;39550;52.230;5.194;2024-02-26T09:13:15;100382.50;;;5.09;95.32
53647;BME280;39550;52.230;5.194;2024-02-26T09:15:40;100391.88;;;5.10;95.43
53647;BME280;39550;52.230;5.194;2024-02-26T09:18:06;100394.44;;;5.10;95.48
53647;BME280;39550;52.230;5.194;2024-02-26T09:20:34;100404.69;;;5.12;95.84
53647;BME280;39550;52.230;5.194;2024-02-26T09:22:59;100401.25;;;5.10;95.76
53647;BME280;39550;52.230;5.194;2024-02-26T09:25:24;100403.78;;;5.08;95.62
53647;BME280;39550;52.230;5.194;2024-02-26T09:27:50;100408.88;;;5.08;95.53
53647;BME280;39550;52.230;5.194;2024-02-26T09:30:15;100410.59;;;5.09;95.65
53647;BME280;39550;52.230;5.194;2024-02-26T09:32:41;100407.22;;;5.10;95.02
53647;BME280;39550;52.230;5.194;2024-02-26T09:35:06;100414.88;;;5.10;94.78
53647;BME280;39550;52.230;5.194;2024-02-26T09:37:32;100414.88;;;5.10;95.73
53647;BME280;39550;52.230;5.194;2024-02-26T09:39:58;100419.97;;;5.10;95.43
53647;BME280;39550;52.230;5.194;2024-02-26T09:42:25;100428.53;;;5.11;95.63
53647;BME280;39550;52.230;5.194;2024-02-26T09:44:54;100436.22;;;5.13;95.48
53647;BME280;39550;52.230;5.194;2024-02-26T09:47:26;100438.78;;;5.13;94.59
53647;BME280;39550;52.230;5.194;2024-02-26T09:49:54;100438.78;;;5.13;95.57
53647;BME280;39550;52.230;5.194;2024-02-26T09:52:21;100436.22;;;5.13;95.27
53647;BME280;39550;52.230;5.194;2024-02-26T09:54:48;100443.84;;;5.11;94.67
53647;BME280;39550;52.230;5.194;2024-02-26T09:57:15;100446.44;;;5.13;94.58
53647;BME280;39550;52.230;5.194;2024-02-26T09:59:43;100442.19;;;5.13;94.81
53647;BME280;39550;52.230;5.194;2024-02-26T10:02:13;100454.13;;;5.14;94.85
53647;BME280;39550;52.230;5.194;2024-02-26T10:04:42;100455.75;;;5.10;95.05
53647;BME280;39550;52.230;5.194;2024-02-26T10:07:11;100465.19;;;5.15;95.27
53647;BME280;39550;52.230;5.194;2024-02-26T10:09:37;100453.13;;;5.07;94.73
53647;BME280;39550;52.230;5.194;2024-02-26T10:12:04;100461.81;;;5.16;95.16
53647;BME280;39550;52.230;5.194;2024-02-26T10:14:30;100464.38;;;5.16;94.41
53647;BME280;39550;52.230;5.194;2024-02-26T10:16:55;100466.03;;;5.14;94.33
53647;BME280;39550;52.230;5.194;2024-02-26T10:19:28;100477.09;;;5.13;95.35
53647;BME280;39550;52.230;5.194;2024-02-26T10:21:59;100477.09;;;5.13;94.66
53647;BME280;39550;52.230;5.194;2024-02-26T10:24:26;100472.81;;;5.11;95.43
53647;BME280;39550;52.230;5.194;2024-02-26T10:26:52;100481.31;;;5.12;95.58
53647;BME280;39550;52.230;5.194;2024-02-26T10:29:18;100480.44;;;5.10;95.26
53647;BME280;39550;52.230;5.194;2024-02-26T10:31:44;100490.59;;;5.08;95.02
53647;BME280;39550;52.230;5.194;2024-02-26T10:34:10;100489.75;;;5.09;95.79
53647;BME280;39550;52.230;5.194;2024-02-26T10:36:35;100490.59;;;5.08;95.24
53647;BME280;39550;52.230;5.194;2024-02-26T10:39:04;100496.50;;;5.06;95.28
53647;BME280;39550;52.230;5.194;2024-02-26T10:41:30;100502.53;;;5.09;94.92
53647;BME280;39550;52.230;5.194;2024-02-26T10:43:55;100504.19;;;5.07;94.92
53647;BME280;39550;52.230;5.194;2024-02-26T10:46:20;100505.06;;;5.08;95.86
53647;BME280;39550;52.230;5.194;2024-02-26T10:48:52;100505.94;;;5.08;95.53
53647;BME280;39550;52.230;5.194;2024-02-26T10:51:26;100517.84;;;5.09;95.59
53647;BME280;39550;52.230;5.194;2024-02-26T10:53:55;100526.28;;;5.05;95.30
53647;BME280;39550;52.230;5.194;2024-02-26T10:56:24;100525.41;;;5.05;96.07
53647;BME280;39550;52.230;5.194;2024-02-26T10:58:50;100537.31;;;5.04;95.44
53647;BME280;39550;52.230;5.194;2024-02-26T11:01:17;100535.63;;;5.05;95.46
53647;BME280;39550;52.230;5.194;2024-02-26T11:03:44;100536.50;;;5.05;95.42
53647;BME280;39550;52.230;5.194;2024-02-26T11:06:12;100543.25;;;5.03;95.98
53647;BME280;39550;52.230;5.194;2024-02-26T11:08:38;100548.38;;;5.03;95.50
53647;BME280;39550;52.230;5.194;2024-02-26T11:11:04;100546.63;;;5.02;96.21
53647;BME280;39550;52.230;5.194;2024-02-26T11:13:31;100550.09;;;5.04;95.88
53647;BME280;39550;52.230;5.194;2024-02-26T11:15:56;100559.50;;;5.05;95.29
53647;BME280;39550;52.230;5.194;2024-02-26T11:18:26;100561.16;;;5.05;95.31
53647;BME280;39550;52.230;5.194;2024-02-26T11:20:52;100563.72;;;5.05;95.89
53647;BME280;39550;52.230;5.194;2024-02-26T11:23:21;100569.72;;;5.05;96.32
53647;BME280;39550;52.230;5.194;2024-02-26T11:25:47;100573.09;;;5.04;96.32
53647;BME280;39550;52.230;5.194;2024-02-26T11:28:16;100568.78;;;5.03;95.21
53647;BME280;39550;52.230;5.194;2024-02-26T11:30:46;100573.91;;;5.03;95.32
53647;BME280;39550;52.230;5.194;2024-02-26T11:33:13;100568.78;;;5.03;95.76
53647;BME280;39550;52.230;5.194;2024-02-26T11:35:40;100585.84;;;5.04;95.96
53647;BME280;39550;52.230;5.194;2024-02-26T11:38:06;100589.22;;;5.03;96.33
53647;BME280;39550;52.230;5.194;2024-02-26T11:40:33;100585.84;;;5.04;96.42
53647;BME280;39550;52.230;5.194;2024-02-26T11:42:58;100588.41;;;5.04;96.33
53647;BME280;39550;52.230;5.194;2024-02-26T11:48:10;100587.59;;;5.05;96.62
53647;BME280;39550;52.230;5.194;2024-02-26T11:50:39;100583.25;;;5.03;95.58
53647;BME280;39550;52.230;5.194;2024-02-26T11:53:27;100594.31;;;5.03;96.17
53647;BME280;39550;52.230;5.194;2024-02-26T11:56:32;100597.81;;;5.05;95.89
53647;BME280;39550;52.230;5.194;2024-02-26T12:01:46;100596.06;;;5.04;95.55
53647;BME280;39550;52.230;5.194;2024-02-26T12:04:26;100603.72;;;5.04;95.89
53647;BME280;39550;52.230;5.194;2024-02-26T12:07:00;100596.06;;;5.04;95.49
53647;BME280;39550;52.230;5.194;2024-02-26T12:09:39;100601.19;;;5.04;96.17
53647;BME280;39550;52.230;5.194;2024-02-26T12:12:09;100608.84;;;5.04;96.02
53647;BME280;39550;52.230;5.194;2024-02-26T12:14:37;100608.03;;;5.05;95.74
53647;BME280;39550;52.230;5.194;2024-02-26T12:17:03;100619.91;;;5.05;95.92
53647;BME280;39550;52.230;5.194;2024-02-26T12:19:31;100617.34;;;5.05;95.43
53647;BME280;39550;52.230;5.194;2024-02-26T12:21:56;100614.78;;;5.05;95.42
53647;BME280;39550;52.230;5.194;2024-02-26T12:24:22;100623.28;;;5.04;96.18
53647;BME280;39550;52.230;5.194;2024-02-26T12:26:47;100626.72;;;5.04;95.12
53647;BME280;39550;52.230;5.194;2024-02-26T12:29:13;100615.53;;;5.01;95.08
53647;BME280;39550;52.230;5.194;2024-02-26T12:31:39;100621.53;;;5.01;95.23
53647;BME280;39550;52.230;5.194;2024-02-26T12:34:06;100623.34;;;5.05;95.37
53647;BME280;39550;52.230;5.194;2024-02-26T12:36:33;100628.44;;;5.05;96.36
53647;BME280;39550;52.230;5.194;2024-02-26T12:39:00;100635.25;;;5.06;95.40
53647;BME280;39550;52.230;5.194;2024-02-26T12:41:26;100628.44;;;5.05;96.05
53647;BME280;39550;52.230;5.194;2024-02-26T12:43:53;100638.56;;;5.02;95.83
53647;BME280;39550;52.230;5.194;2024-02-26T12:46:18;100636.03;;;5.04;96.23
53647;BME280;39550;52.230;5.194;2024-02-26T12:48:43;100650.56;;;5.05;95.05
53647;BME280;39550;52.230;5.194;2024-02-26T12:51:12;100660.81;;;5.06;96.18
53647;BME280;39550;52.230;5.194;2024-02-26T12:53:39;100664.22;;;5.05;95.49
53647;BME280;39550;52.230;5.194;2024-02-26T12:56:07;100658.25;;;5.06;95.94
53647;BME280;39550;52.230;5.194;2024-02-26T12:58:34;100656.53;;;5.05;96.05
53647;BME280;39550;52.230;5.194;2024-02-26T13:01:00;100666.81;;;5.07;96.06
53647;BME280;39550;52.230;5.194;2024-02-26T13:03:26;100669.41;;;5.08;95.65